createdAt,value
2019-01-14T00:00:43.282Z,-0.49
2019-01-14T00:03:13.639Z,-0.33
2019-01-14T00:05:43.983Z,-0.36
2019-01-14T00:08:14.215Z,-0.32
2019-01-14T00:10:44.462Z,-0.35
2019-01-14T00:13:14.688Z,-0.37
2019-01-14T00:15:44.927Z,-0.40
2019-01-14T00:18:15.116Z,-0.79
2019-01-14T00:20:45.380Z,-0.83
2019-01-14T00:23:15.637Z,-0.79
2019-01-14T00:25:45.784Z,-0.72
2019-01-14T00:28:15.957Z,-0.72
2019-01-14T00:30:46.213Z,-0.83
2019-01-14T00:33:16.461Z,-1.02
2019-01-14T00:35:46.614Z,-1.00
2019-01-14T00:38:16.781Z,-1.09
2019-01-14T00:40:47.044Z,-1.05
2019-01-14T00:43:17.312Z,-0.95
2019-01-14T00:45:47.490Z,-1.03
2019-01-14T00:48:17.663Z,-1.16
2019-01-14T00:50:47.942Z,-1.09
2019-01-14T00:53:18.164Z,-1.04
2019-01-14T00:55:48.303Z,-1.11
2019-01-14T00:58:18.470Z,-1.11
2019-01-14T01:00:48.718Z,-1.15
2019-01-14T01:03:19.156Z,-1.16
2019-01-14T01:05:49.372Z,-1.15
2019-01-14T01:08:19.721Z,-1.23
2019-01-14T01:10:50.076Z,-1.22
2019-01-14T01:13:20.321Z,-1.23
2019-01-14T01:15:50.473Z,-1.29
2019-01-14T01:18:20.705Z,-1.30
2019-01-14T01:23:41.811Z,-1.34
2019-01-14T01:26:12.192Z,-1.31
2019-01-14T01:28:42.355Z,-1.30
2019-01-14T01:31:12.603Z,-1.26
2019-01-14T01:33:42.781Z,-1.30
2019-01-14T01:36:13.037Z,-1.40
2019-01-14T01:38:43.287Z,-1.47
2019-01-14T01:41:13.437Z,-1.35
2019-01-14T01:43:43.632Z,-1.47
2019-01-14T01:46:13.873Z,-1.49
2019-01-14T01:48:44.094Z,-1.49
2019-01-14T01:51:14.235Z,-1.42
2019-01-14T01:53:44.407Z,-1.61
2019-01-14T01:56:14.662Z,-1.75
2019-01-14T01:58:44.912Z,-1.71
2019-01-14T02:01:15.088Z,-1.72
2019-01-14T02:03:45.449Z,-1.60
2019-01-14T02:14:43.916Z,-1.69
2019-01-14T02:17:14.422Z,-1.69
2019-01-14T02:19:44.581Z,-1.61
2019-01-14T02:22:14.735Z,-1.73
2019-01-14T02:24:44.984Z,-2.37
2019-01-14T02:27:15.235Z,-2.37
2019-01-14T02:29:45.379Z,-2.21
2019-01-14T02:32:15.540Z,-2.11
2019-01-14T02:34:45.782Z,-1.95
2019-01-14T02:37:16.004Z,-1.96
2019-01-14T02:39:46.169Z,-1.86
2019-01-14T02:42:16.346Z,-2.10
2019-01-14T02:44:46.604Z,-2.11
2019-01-14T02:47:16.858Z,-1.97
2019-01-14T02:49:47.015Z,-2.98
2019-01-14T02:52:17.170Z,-3.31
2019-01-14T02:54:47.439Z,-4.03
2019-01-14T02:57:17.683Z,-4.16
2019-01-14T03:03:04.284Z,-3.62
2019-01-14T03:14:37.284Z,-3.31
2019-01-14T03:17:07.544Z,-3.28
2019-01-14T03:42:52.592Z,-3.21
2019-01-14T03:45:22.843Z,-3.28
2019-01-14T03:47:53.082Z,-3.22
2019-01-14T03:50:44.413Z,-3.03
2019-01-14T03:53:14.888Z,-2.56
2019-01-14T03:55:45.146Z,-2.27
2019-01-14T03:58:15.380Z,-2.11
2019-01-14T04:00:45.622Z,-1.90
2019-01-14T04:03:15.820Z,-1.70
2019-01-14T04:05:46.064Z,-1.59
2019-01-14T04:08:16.298Z,-1.55
2019-01-14T04:10:46.461Z,-1.46
2019-01-14T04:13:16.625Z,-1.45
2019-01-14T04:15:46.959Z,-1.39
2019-01-14T04:18:17.201Z,-1.26
2019-01-14T04:20:47.353Z,-1.23
2019-01-14T04:23:17.524Z,-1.29
2019-01-14T04:25:47.792Z,-1.37
2019-01-14T04:28:18.099Z,-2.30
2019-01-14T04:30:48.293Z,-2.62
2019-01-14T04:33:18.525Z,-2.79
2019-01-14T04:35:48.687Z,-2.40
2019-01-14T04:38:18.861Z,-1.89
2019-01-14T04:40:49.139Z,-1.97
2019-01-14T04:43:19.404Z,-2.10
2019-01-14T04:45:49.564Z,-2.50
2019-01-14T04:48:19.745Z,-3.43
2019-01-14T04:50:50.086Z,-3.73
2019-01-14T04:58:32.382Z,-2.67
2019-01-14T05:01:02.845Z,-2.43
2019-01-14T05:03:33.098Z,-2.22
2019-01-14T05:06:03.266Z,-2.17
2019-01-14T05:08:33.402Z,-2.02
2019-01-14T05:11:03.675Z,-1.97
2019-01-14T05:13:33.821Z,-1.85
2019-01-14T05:16:04.073Z,-2.08
2019-01-14T05:18:34.335Z,-3.07
2019-01-14T05:21:04.503Z,-3.00
2019-01-14T05:23:34.642Z,-2.62
2019-01-14T05:26:04.913Z,-2.84
2019-01-14T05:28:35.235Z,-3.09
2019-01-14T05:31:05.383Z,-3.07
2019-01-14T05:33:35.529Z,-3.11
2019-01-14T05:36:25.890Z,-3.17
2019-01-14T05:53:59.537Z,-3.95
2019-01-14T05:56:29.892Z,-3.73
2019-01-14T05:59:00.188Z,-3.64
2019-01-14T06:01:30.432Z,-3.79
2019-01-14T06:04:00.579Z,-4.32
2019-01-14T06:06:30.755Z,-4.36
2019-01-14T06:09:01.044Z,-4.05
2019-01-14T06:11:31.296Z,-4.01
2019-01-14T06:14:01.554Z,-3.67
2019-01-14T06:16:31.711Z,-3.92
2019-01-14T06:19:01.974Z,-4.38
2019-01-14T06:21:32.217Z,-4.47
2019-01-14T06:24:02.404Z,-4.46
2019-01-14T06:26:32.579Z,-5.99
2019-01-14T06:29:02.838Z,-5.99
2019-01-14T06:31:33.121Z,-6.82
2019-01-14T06:36:58.128Z,-7.37
2019-01-14T06:45:23.228Z,-6.13
2019-01-14T06:47:53.408Z,-5.83
2019-01-14T06:50:23.615Z,-5.83
2019-01-14T06:58:41.977Z,-4.49
2019-01-14T07:10:17.869Z,-3.02
2019-01-14T07:12:48.068Z,-1.58
2019-01-14T07:15:18.523Z,-1.39
2019-01-14T07:17:48.718Z,-0.95
2019-01-14T07:20:19.129Z,-0.25
2019-01-14T07:22:49.361Z,0.96
2019-01-14T07:25:19.640Z,1.36
2019-01-14T07:27:49.866Z,1.51
2019-01-14T07:30:21.446Z,1.75
2019-01-14T07:32:51.685Z,2.03
2019-01-14T07:35:21.906Z,2.35
2019-01-14T07:37:52.131Z,2.77
2019-01-14T07:40:22.441Z,2.97
2019-01-14T07:42:52.688Z,3.05
2019-01-14T07:45:22.911Z,2.35
2019-01-14T07:47:53.189Z,0.29
2019-01-14T07:50:23.551Z,-0.31
2019-01-14T07:52:53.811Z,-0.37
2019-01-14T07:55:24.074Z,-0.08
2019-01-14T07:57:54.340Z,0.67
2019-01-14T08:03:19.718Z,1.45
2019-01-14T08:08:40.801Z,4.51
2019-01-14T08:11:11.111Z,3.98
2019-01-14T08:13:41.358Z,3.92
2019-01-14T08:16:11.645Z,4.85
2019-01-14T08:18:41.932Z,5.68
2019-01-14T08:21:12.098Z,6.03
2019-01-14T08:23:42.271Z,6.75
2019-01-14T08:26:12.523Z,5.30
2019-01-14T08:28:42.760Z,6.11
2019-01-14T08:31:12.927Z,6.20
2019-01-14T08:33:43.099Z,6.11
2019-01-14T08:36:13.447Z,6.93
2019-01-14T08:38:43.765Z,7.84
2019-01-14T08:46:45.417Z,9.41
2019-01-14T08:49:15.803Z,8.48
2019-01-14T08:51:53.101Z,7.74
2019-01-14T08:54:23.397Z,7.58
2019-01-14T08:56:53.748Z,8.01
2019-01-14T08:59:23.901Z,7.62
2019-01-14T09:01:54.166Z,8.33
2019-01-14T09:04:24.564Z,7.71
2019-01-14T09:06:54.788Z,7.35
2019-01-14T09:09:24.949Z,7.65
2019-01-14T09:11:55.274Z,7.92
2019-01-14T09:14:25.506Z,7.78
2019-01-14T09:16:55.647Z,7.80
2019-01-14T09:19:25.792Z,8.13
2019-01-14T09:21:56.052Z,7.77
2019-01-14T09:24:26.326Z,7.80
2019-01-14T09:26:56.488Z,8.05
2019-01-14T09:29:26.683Z,8.92
2019-01-14T09:37:23.763Z,6.93
2019-01-14T09:39:54.027Z,7.23
2019-01-14T09:42:27.937Z,7.61
2019-01-14T09:44:56.174Z,7.56
2019-01-14T09:47:26.448Z,6.17
2019-01-14T09:49:56.773Z,6.27
2019-01-14T09:52:28.426Z,6.93
2019-01-14T09:54:59.037Z,7.81
2019-01-14T09:57:29.413Z,8.64
2019-01-14T09:59:59.665Z,8.29
2019-01-14T10:02:29.811Z,7.33
2019-01-14T10:04:59.955Z,6.14
2019-01-14T10:07:30.223Z,5.76
2019-01-14T10:10:00.467Z,6.93
2019-01-14T10:12:30.632Z,6.72
2019-01-14T10:15:00.874Z,6.87
2019-01-14T10:20:22.215Z,6.64
2019-01-14T10:22:52.576Z,5.77
2019-01-14T10:28:22.361Z,4.89
2019-01-14T10:30:52.674Z,4.98
2019-01-14T10:33:24.358Z,5.30
2019-01-14T10:35:54.646Z,4.73
2019-01-14T10:38:24.909Z,4.55
2019-01-14T10:40:55.130Z,5.33
2019-01-14T10:43:25.459Z,4.40
2019-01-14T10:45:55.798Z,4.99
2019-01-14T10:48:26.065Z,5.11
2019-01-14T10:50:56.261Z,4.07
2019-01-14T10:53:26.522Z,3.18
2019-01-14T10:55:56.795Z,3.01
2019-01-14T10:58:26.981Z,3.23
2019-01-14T11:00:57.193Z,3.84
2019-01-14T11:03:27.408Z,3.24
2019-01-14T11:05:57.572Z,3.66
2019-01-14T11:08:27.776Z,4.13
2019-01-14T11:10:58.037Z,4.32
2019-01-14T11:13:28.236Z,4.72
2019-01-14T11:15:58.395Z,4.53
2019-01-14T11:18:28.701Z,4.76
2019-01-14T11:20:58.986Z,4.49
2019-01-14T11:23:29.205Z,5.30
2019-01-14T11:25:59.384Z,5.73
2019-01-14T11:31:25.569Z,4.20
2019-01-14T11:33:55.859Z,4.80
2019-01-14T11:36:26.045Z,4.75
2019-01-14T11:38:56.213Z,4.05
2019-01-14T11:41:27.423Z,4.20
2019-01-14T11:43:57.505Z,4.80
2019-01-14T11:46:27.769Z,4.34
2019-01-14T11:48:58.001Z,4.52
2019-01-14T11:51:28.189Z,4.90
2019-01-14T11:53:58.375Z,4.50
2019-01-14T11:56:28.642Z,3.96
2019-01-14T11:58:58.880Z,4.05
2019-01-14T12:01:29.058Z,4.69
2019-01-14T12:03:59.223Z,4.56
2019-01-14T12:06:29.494Z,4.39
2019-01-14T12:08:59.750Z,3.93
2019-01-14T12:11:29.935Z,3.92
2019-01-14T12:14:00.212Z,4.22
2019-01-14T12:16:30.482Z,4.60
2019-01-14T12:19:00.739Z,5.10
2019-01-14T12:21:30.911Z,5.51
2019-01-14T12:24:01.193Z,5.75
2019-01-14T12:26:31.492Z,5.68
2019-01-14T12:29:01.774Z,5.90
2019-01-14T12:31:31.936Z,6.26
2019-01-14T12:34:02.240Z,6.95
2019-01-14T12:36:32.546Z,7.14
2019-01-14T12:44:29.013Z,6.51
2019-01-14T12:46:59.426Z,6.27
2019-01-14T12:49:29.738Z,6.17
2019-01-14T12:51:59.895Z,6.21
2019-01-14T12:54:30.068Z,6.00
2019-01-14T12:57:00.342Z,5.99
2019-01-14T12:59:30.728Z,5.83
2019-01-14T13:02:00.935Z,4.90
2019-01-14T13:04:31.207Z,4.42
2019-01-14T13:07:01.395Z,4.47
2019-01-14T13:09:31.554Z,4.42
2019-01-14T13:12:01.911Z,4.42
2019-01-14T13:14:32.201Z,4.62
2019-01-14T13:17:02.393Z,4.69
2019-01-14T13:19:32.561Z,4.78
2019-01-14T13:22:02.857Z,5.13
2019-01-14T13:24:33.183Z,5.09
2019-01-14T13:27:03.482Z,5.31
2019-01-14T13:29:33.668Z,4.91
2019-01-14T13:32:03.964Z,4.72
2019-01-14T13:34:34.313Z,4.75
2019-01-14T13:37:04.508Z,5.01
2019-01-14T13:39:34.729Z,5.13
2019-01-14T13:42:05.207Z,5.30
2019-01-14T13:47:11.906Z,6.04
2019-01-14T13:49:42.320Z,5.30
2019-01-14T13:52:12.499Z,5.65
2019-01-14T13:54:42.702Z,5.75
2019-01-14T13:57:12.987Z,5.19
2019-01-14T13:59:43.272Z,5.18
2019-01-14T14:02:13.488Z,4.69
2019-01-14T14:04:43.763Z,4.88
2019-01-14T14:07:14.143Z,4.38
2019-01-14T14:09:44.466Z,4.36
2019-01-14T14:12:14.751Z,4.09
2019-01-14T14:14:44.936Z,4.10
2019-01-14T14:17:15.220Z,4.44
2019-01-14T14:19:45.485Z,4.69
2019-01-14T14:22:15.661Z,4.64
2019-01-14T14:24:45.912Z,4.60
2019-01-14T14:27:16.206Z,4.61
2019-01-14T14:29:46.388Z,4.60
2019-01-14T14:32:16.684Z,4.79
2019-01-14T14:34:46.961Z,4.86
2019-01-14T14:37:17.144Z,4.85
2019-01-14T14:39:48.653Z,4.55
2019-01-14T14:42:19.403Z,4.38
2019-01-14T14:44:49.679Z,4.33
2019-01-14T14:47:19.849Z,4.18
2019-01-14T14:49:50.015Z,4.08
2019-01-14T14:52:20.301Z,3.90
2019-01-14T14:54:50.594Z,3.87
2019-01-14T14:57:20.792Z,4.03
2019-01-14T14:59:51.048Z,4.01
2019-01-14T15:02:21.319Z,4.16
2019-01-14T15:04:51.502Z,4.02
2019-01-14T15:07:21.808Z,3.45
2019-01-14T15:09:55.748Z,3.35
2019-01-14T15:12:24.123Z,3.22
2019-01-14T15:14:54.508Z,3.37
2019-01-14T15:17:24.781Z,3.38
2019-01-14T15:19:55.067Z,3.39
2019-01-14T15:25:00.610Z,3.47
2019-01-14T15:30:51.323Z,3.58
2019-01-14T15:33:21.648Z,3.76
2019-01-14T15:35:51.902Z,3.70
2019-01-14T15:38:22.131Z,3.49
2019-01-14T15:40:52.390Z,3.51
2019-01-14T15:43:22.570Z,3.48
2019-01-14T15:45:52.788Z,3.44
2019-01-14T15:48:23.066Z,3.42
2019-01-14T15:50:53.236Z,3.35
2019-01-14T15:53:23.455Z,3.34
2019-01-14T15:55:53.730Z,3.23
2019-01-14T15:58:23.949Z,2.51
2019-01-14T16:00:54.109Z,2.72
2019-01-14T16:03:24.311Z,2.75
2019-01-14T16:05:54.550Z,2.86
2019-01-14T16:08:24.731Z,2.89
2019-01-14T16:10:54.886Z,3.12
2019-01-14T16:13:25.115Z,3.33
2019-01-14T16:15:55.383Z,3.32
2019-01-14T16:18:25.620Z,3.17
2019-01-14T16:20:55.849Z,3.21
2019-01-14T16:23:26.039Z,3.03
2019-01-14T16:25:56.230Z,2.94
2019-01-14T16:28:26.529Z,2.89
2019-01-14T16:30:56.786Z,2.80
2019-01-14T16:36:03.001Z,2.42
2019-01-14T16:38:33.304Z,2.47
2019-01-14T16:41:03.564Z,2.44
2019-01-14T16:43:33.805Z,2.24
2019-01-14T16:46:04.058Z,2.09
2019-01-14T16:48:34.221Z,1.90
2019-01-14T16:51:04.479Z,2.00
2019-01-14T16:53:34.743Z,0.56
2019-01-14T16:56:05.286Z,2.15
2019-01-14T16:58:35.453Z,1.85
2019-01-14T17:04:03.863Z,1.78
2019-01-14T17:06:34.008Z,2.00
2019-01-14T17:09:24.437Z,1.92
2019-01-14T17:11:54.800Z,1.93
2019-01-14T17:14:24.983Z,1.91
2019-01-14T17:16:55.219Z,1.90
2019-01-14T17:19:25.488Z,2.00
2019-01-14T17:21:55.671Z,2.01
2019-01-14T17:24:25.829Z,2.01
2019-01-14T17:26:56.070Z,2.00
2019-01-14T17:29:26.302Z,2.08
2019-01-14T17:31:56.459Z,2.25
2019-01-14T17:34:26.614Z,2.04
2019-01-14T17:36:56.867Z,1.86
2019-01-14T17:39:27.132Z,1.92
2019-01-14T17:44:48.096Z,2.03
2019-01-14T17:47:18.516Z,2.01
2019-01-14T17:49:48.771Z,2.01
2019-01-14T17:52:19.039Z,2.00
2019-01-14T17:54:49.199Z,2.10
2019-01-14T18:03:18.981Z,2.36
2019-01-14T18:05:49.220Z,2.24
2019-01-14T18:08:19.390Z,2.18
2019-01-14T18:10:49.663Z,2.31
2019-01-14T18:13:19.950Z,2.23
2019-01-14T18:15:50.113Z,2.16
2019-01-14T18:18:20.285Z,2.13
2019-01-14T18:20:50.653Z,2.09
2019-01-14T18:23:20.930Z,2.08
2019-01-14T18:25:51.091Z,2.02
2019-01-14T18:28:21.255Z,2.04
2019-01-14T18:30:51.525Z,2.03
2019-01-14T18:33:21.685Z,2.16
2019-01-14T18:35:51.934Z,2.01
2019-01-14T18:38:22.165Z,2.04
2019-01-14T18:40:52.331Z,1.93
2019-01-14T18:43:22.467Z,1.96
2019-01-14T18:45:52.798Z,2.03
2019-01-14T18:48:23.048Z,2.06
2019-01-14T18:50:53.198Z,2.06
2019-01-14T18:56:20.052Z,2.01
2019-01-14T18:58:50.305Z,2.04
2019-01-14T19:01:20.509Z,2.05
2019-01-14T19:03:50.873Z,1.98
2019-01-14T19:06:21.088Z,1.99
2019-01-14T19:08:51.316Z,1.17
2019-01-14T19:11:21.518Z,1.10
2019-01-14T19:13:51.709Z,1.61
2019-01-14T19:16:21.911Z,0.87
2019-01-14T19:18:52.105Z,1.11
2019-01-14T19:21:22.319Z,1.74
2019-01-14T19:23:52.579Z,1.43
2019-01-14T19:26:22.777Z,1.01
2019-01-14T19:28:52.942Z,1.03
2019-01-14T19:31:23.141Z,0.66
2019-01-14T19:33:53.405Z,1.00
2019-01-14T19:36:23.618Z,1.32
2019-01-14T19:38:53.781Z,1.36
2019-01-14T19:41:24.045Z,0.90
2019-01-14T19:43:54.290Z,0.77
2019-01-14T19:46:24.530Z,1.04
2019-01-14T19:48:54.696Z,1.47
2019-01-14T19:51:25.019Z,1.67
2019-01-14T19:53:55.220Z,1.70
2019-01-14T20:01:58.157Z,1.64
2019-01-14T20:04:28.324Z,1.63
2019-01-14T20:06:58.502Z,1.12
2019-01-14T20:09:28.759Z,1.23
2019-01-14T20:11:58.997Z,0.78
2019-01-14T20:14:29.240Z,0.98
2019-01-14T20:16:59.634Z,0.67
2019-01-14T20:19:29.889Z,0.83
2019-01-14T20:22:00.157Z,0.83
2019-01-14T20:24:30.450Z,0.89
2019-01-14T20:27:00.634Z,1.56
2019-01-14T20:29:30.901Z,0.57
2019-01-14T20:32:01.145Z,1.02
2019-01-14T20:34:31.297Z,1.27
2019-01-14T20:37:01.567Z,1.37
2019-01-14T20:39:31.839Z,1.50
2019-01-14T20:42:01.993Z,1.59
2019-01-14T20:44:32.246Z,1.58
2019-01-14T20:47:02.533Z,1.58
2019-01-14T20:49:32.691Z,0.60
2019-01-14T20:52:02.934Z,0.26
2019-01-14T20:54:33.195Z,0.76
2019-01-14T20:57:03.437Z,0.69
2019-01-14T20:59:38.561Z,0.44
2019-01-14T21:02:05.857Z,0.84
2019-01-14T21:04:36.279Z,1.10
2019-01-14T21:07:06.754Z,1.21
2019-01-14T21:09:37.002Z,1.21
2019-01-14T21:12:07.160Z,1.28
2019-01-14T21:14:37.459Z,1.29
2019-01-14T21:17:07.651Z,1.27
2019-01-14T21:19:38.017Z,1.50
2019-01-14T21:22:08.304Z,1.49
2019-01-14T21:27:36.029Z,1.50
2019-01-14T21:30:08.107Z,1.18
2019-01-14T21:32:38.481Z,-0.19
2019-01-14T21:35:08.688Z,1.40
2019-01-14T21:37:38.831Z,1.62
2019-01-14T21:40:10.552Z,1.71
2019-01-14T21:42:40.868Z,1.78
2019-01-14T21:45:12.362Z,1.82
2019-01-14T21:47:42.543Z,1.88
2019-01-14T21:50:15.744Z,1.83
2019-01-14T21:52:46.118Z,1.70
2019-01-14T21:55:18.571Z,1.77
2019-01-14T21:57:48.872Z,1.78
2019-01-14T22:00:21.048Z,1.42
2019-01-14T22:02:51.238Z,0.95
2019-01-14T22:05:21.645Z,0.44
2019-01-14T22:07:51.949Z,0.65
2019-01-14T22:10:24.953Z,1.10
2019-01-14T22:12:55.159Z,0.92
2019-01-14T22:15:25.454Z,1.00
2019-01-14T22:17:55.779Z,0.75
2019-01-14T22:23:21.007Z,1.09
2019-01-14T22:25:51.487Z,0.98
2019-01-14T22:28:21.805Z,0.89
2019-01-14T22:30:52.112Z,0.63
2019-01-14T22:33:22.377Z,0.84
2019-01-14T22:35:52.550Z,1.00
2019-01-14T22:38:22.845Z,1.15
2019-01-14T22:40:52.990Z,1.26
2019-01-14T22:43:23.331Z,1.27
2019-01-14T22:45:53.661Z,1.27
2019-01-14T22:51:47.657Z,1.04
2019-01-14T22:54:17.936Z,1.21
2019-01-14T22:56:48.291Z,1.43
2019-01-14T22:59:18.526Z,1.59
2019-01-14T23:01:51.014Z,1.54
2019-01-14T23:04:21.259Z,1.60
2019-01-14T23:06:51.516Z,1.48
2019-01-14T23:09:21.768Z,1.55
2019-01-14T23:11:53.134Z,1.68
2019-01-14T23:14:24.062Z,1.85
2019-01-14T23:16:54.405Z,1.47
2019-01-14T23:19:24.755Z,1.33
2019-01-14T23:21:54.898Z,1.30
2019-01-14T23:24:25.061Z,1.58
2019-01-14T23:26:55.311Z,1.29
2019-01-14T23:29:25.687Z,0.51
2019-01-14T23:31:55.859Z,0.06
2019-01-14T23:34:26.038Z,-0.60
2019-01-14T23:36:56.343Z,-0.95
2019-01-14T23:39:26.593Z,-0.32
2019-01-14T23:42:00.434Z,0.04
2019-01-14T23:44:28.841Z,0.07
2019-01-14T23:46:59.236Z,-0.29
2019-01-14T23:49:29.608Z,-0.10
2019-01-14T23:51:59.876Z,0.11
2019-01-14T23:54:36.739Z,0.08
2019-01-14T23:57:22.597Z,0.17
